sensor_id;sensor_type;location;lat;lon;timestamp;pressure;altitude;pressure_sealevel;temperature;humidity
69318;BME280;56457;52.190;4.440;2022-11-20T00:00:52;101470.78;;;0.38;100.00
69318;BME280;56457;52.190;4.440;2022-11-20T00:01:52;101477.09;;;0.25;100.00
69318;BME280;56457;52.190;4.440;2022-11-20T00:02:53;101482.09;;;0.03;100.00
69318;BME280;56457;52.190;4.440;2022-11-20T00:03:54;101484.53;;;-0.01;100.00
69318;BME280;56457;52.190;4.440;2022-11-20T00:04:55;101488.63;;;-0.06;100.00
69318;BME280;56457;52.190;4.440;2022-11-20T00:05:59;101483.59;;;-0.03;100.00
69318;BME280;56457;52.190;4.440;2022-11-20T00:06:59;101489.84;;;0.03;100.00
69318;BME280;56457;52.190;4.440;2022-11-20T00:08:00;101487.31;;;0.04;100.00
69318;BME280;56457;52.190;4.440;2022-11-20T00:09:00;101487.31;;;0.04;100.00
69318;BME280;56457;52.190;4.440;2022-11-20T00:10:01;101487.66;;;0.12;100.00
69318;BME280;56457;52.190;4.440;2022-11-20T00:11:03;101489.84;;;0.22;100.00
69318;BME280;56457;52.190;4.440;2022-11-20T00:12:03;101490.28;;;0.31;100.00
69318;BME280;56457;52.190;4.440;2022-11-20T00:13:04;101487.47;;;0.26;100.00
69318;BME280;56457;52.190;4.440;2022-11-20T00:14:04;101488.75;;;0.36;100.00
69318;BME280;56457;52.190;4.440;2022-11-20T00:15:05;101494.72;;;0.35;100.00
69318;BME280;56457;52.190;4.440;2022-11-20T00:16:06;101489.44;;;0.32;100.00
69318;BME280;56457;52.190;4.440;2022-11-20T00:17:07;101488.56;;;0.32;100.00
69318;BME280;56457;52.190;4.440;2022-11-20T00:18:07;101483.94;;;0.24;100.00
69318;BME280;56457;52.190;4.440;2022-11-20T00:19:08;101490.66;;;0.21;100.00
69318;BME280;56457;52.190;4.440;2022-11-20T00:20:08;101486.22;;;0.18;100.00
69318;BME280;56457;52.190;4.440;2022-11-20T00:22:12;101488.91;;;0.01;100.00
69318;BME280;56457;52.190;4.440;2022-11-20T00:23:12;101478.75;;;-0.14;100.00
69318;BME280;56457;52.190;4.440;2022-11-20T00:24:12;101477.69;;;0.00;100.00
69318;BME280;56457;52.190;4.440;2022-11-20T00:25:13;101478.97;;;-0.10;100.00
69318;BME280;56457;52.190;4.440;2022-11-20T00:26:14;101476.88;;;0.01;100.00
69318;BME280;56457;52.190;4.440;2022-11-20T00:27:15;101470.03;;;0.02;100.00
69318;BME280;56457;52.190;4.440;2022-11-20T00:28:15;101471.25;;;0.10;100.00
69318;BME280;56457;52.190;4.440;2022-11-20T00:29:15;101462.28;;;0.21;100.00
69318;BME280;56457;52.190;4.440;2022-11-20T00:30:16;101459.03;;;0.25;100.00
69318;BME280;56457;52.190;4.440;2022-11-20T00:31:16;101469.75;;;0.15;100.00
69318;BME280;56457;52.190;4.440;2022-11-20T00:32:17;101470.13;;;-0.15;100.00
69318;BME280;56457;52.190;4.440;2022-11-20T00:33:17;101473.59;;;-0.14;100.00
69318;BME280;56457;52.190;4.440;2022-11-20T00:34:18;101472.50;;;-0.19;100.00
69318;BME280;56457;52.190;4.440;2022-11-20T00:35:18;101477.31;;;-0.27;100.00
69318;BME280;56457;52.190;4.440;2022-11-20T00:36:19;101470.97;;;-0.16;100.00
69318;BME280;56457;52.190;4.440;2022-11-20T00:37:20;101471.00;;;-0.14;100.00
69318;BME280;56457;52.190;4.440;2022-11-20T00:38:20;101471.72;;;-0.18;100.00
69318;BME280;56457;52.190;4.440;2022-11-20T00:39:21;101469.53;;;-0.09;100.00
69318;BME280;56457;52.190;4.440;2022-11-20T00:40:21;101462.06;;;-0.03;100.00
69318;BME280;56457;52.190;4.440;2022-11-20T00:41:22;101454.81;;;0.08;100.00
69318;BME280;56457;52.190;4.440;2022-11-20T00:42:22;101463.66;;;0.13;100.00
69318;BME280;56457;52.190;4.440;2022-11-20T00:43:23;101454.38;;;0.18;100.00
69318;BME280;56457;52.190;4.440;2022-11-20T00:44:23;101463.66;;;0.13;100.00
69318;BME280;56457;52.190;4.440;2022-11-20T00:45:24;101457.94;;;0.01;100.00
69318;BME280;56457;52.190;4.440;2022-11-20T00:46:25;101455.09;;;-0.06;100.00
69318;BME280;56457;52.190;4.440;2022-11-20T00:47:26;101452.97;;;0.05;100.00
69318;BME280;56457;52.190;4.440;2022-11-20T00:48:26;101457.41;;;0.08;100.00
69318;BME280;56457;52.190;4.440;2022-11-20T00:49:26;101458.13;;;0.05;100.00
69318;BME280;56457;52.190;4.440;2022-11-20T00:50:27;101447.91;;;0.07;100.00
69318;BME280;56457;52.190;4.440;2022-11-20T00:51:27;101453.94;;;0.07;100.00
69318;BME280;56457;52.190;4.440;2022-11-20T00:52:27;101445.06;;;0.01;100.00
69318;BME280;56457;52.190;4.440;2022-11-20T00:53:28;101444.28;;;0.03;100.00
69318;BME280;56457;52.190;4.440;2022-11-20T00:54:28;101445.66;;;-0.05;100.00
69318;BME280;56457;52.190;4.440;2022-11-20T00:55:28;101453.44;;;-0.04;100.00
69318;BME280;56457;52.190;4.440;2022-11-20T00:56:29;101442.72;;;-0.13;100.00
69318;BME280;56457;52.190;4.440;2022-11-20T00:57:29;101454.22;;;-0.06;100.00
69318;BME280;56457;52.190;4.440;2022-11-20T00:58:33;101449.16;;;-0.03;100.00
69318;BME280;56457;52.190;4.440;2022-11-20T00:59:34;101456.69;;;-0.27;100.00
69318;BME280;56457;52.190;4.440;2022-11-20T01:00:34;101456.97;;;-0.21;100.00
69318;BME280;56457;52.190;4.440;2022-11-20T01:01:35;101462.56;;;-0.12;100.00
69318;BME280;56457;52.190;4.440;2022-11-20T01:02:36;101466.34;;;-0.23;100.00
69318;BME280;56457;52.190;4.440;2022-11-20T01:03:37;101453.53;;;-0.39;100.00
69318;BME280;56457;52.190;4.440;2022-11-20T01:04:38;101460.16;;;-0.44;100.00
69318;BME280;56457;52.190;4.440;2022-11-20T01:05:38;101463.03;;;-0.38;100.00
69318;BME280;56457;52.190;4.440;2022-11-20T01:06:38;101458.13;;;-0.51;100.00
69318;BME280;56457;52.190;4.440;2022-11-20T01:07:39;101455.53;;;-0.51;100.00
69318;BME280;56457;52.190;4.440;2022-11-20T01:08:39;101464.03;;;-0.54;100.00
69318;BME280;56457;52.190;4.440;2022-11-20T01:09:40;101460.78;;;-0.50;100.00
69318;BME280;56457;52.190;4.440;2022-11-20T01:10:40;101456.13;;;-0.39;100.00
69318;BME280;56457;52.190;4.440;2022-11-20T01:11:41;101460.75;;;-0.32;100.00
69318;BME280;56457;52.190;4.440;2022-11-20T01:12:42;101463.59;;;-0.26;100.00
69318;BME280;56457;52.190;4.440;2022-11-20T01:13:43;101459.59;;;-0.19;100.00
69318;BME280;56457;52.190;4.440;2022-11-20T01:14:45;101462.47;;;-0.13;100.00
69318;BME280;56457;52.190;4.440;2022-11-20T01:15:46;101454.53;;;-0.18;100.00
69318;BME280;56457;52.190;4.440;2022-11-20T01:16:50;101445.81;;;-0.20;100.00
69318;BME280;56457;52.190;4.440;2022-11-20T01:17:51;101441.56;;;-0.19;100.00
69318;BME280;56457;52.190;4.440;2022-11-20T01:18:52;101451.81;;;-0.21;100.00
69318;BME280;56457;52.190;4.440;2022-11-20T01:19:52;101448.22;;;-0.24;100.00
69318;BME280;56457;52.190;4.440;2022-11-20T01:20:53;101448.94;;;-0.27;100.00
69318;BME280;56457;52.190;4.440;2022-11-20T01:21:54;101444.72;;;-0.25;100.00
69318;BME280;56457;52.190;4.440;2022-11-20T01:22:54;101445.72;;;-0.23;100.00
69318;BME280;56457;52.190;4.440;2022-11-20T01:23:54;101447.59;;;-0.19;100.00
69318;BME280;56457;52.190;4.440;2022-11-20T01:24:55;101440.88;;;-0.15;100.00
69318;BME280;56457;52.190;4.440;2022-11-20T01:25:55;101437.69;;;-0.10;100.00
69318;BME280;56457;52.190;4.440;2022-11-20T01:26:55;101438.53;;;-0.11;100.00
69318;BME280;56457;52.190;4.440;2022-11-20T01:27:56;101433.38;;;-0.11;100.00
69318;BME280;56457;52.190;4.440;2022-11-20T01:28:56;101432.53;;;-0.10;100.00
69318;BME280;56457;52.190;4.440;2022-11-20T01:29:57;101432.81;;;-0.04;100.00
69318;BME280;56457;52.190;4.440;2022-11-20T01:30:57;101432.06;;;-0.01;100.00
69318;BME280;56457;52.190;4.440;2022-11-20T01:31:57;101432.22;;;0.02;100.00
69318;BME280;56457;52.190;4.440;2022-11-20T01:32:58;101434.78;;;0.02;100.00
69318;BME280;56457;52.190;4.440;2022-11-20T01:33:59;101430.09;;;-0.07;100.00
69318;BME280;56457;52.190;4.440;2022-11-20T01:35:00;101430.19;;;-0.05;100.00
69318;BME280;56457;52.190;4.440;2022-11-20T01:36:03;101430.03;;;-0.08;100.00
69318;BME280;56457;52.190;4.440;2022-11-20T01:37:04;101433.47;;;-0.08;100.00
69318;BME280;56457;52.190;4.440;2022-11-20T01:38:04;101439.41;;;-0.10;100.00
69318;BME280;56457;52.190;4.440;2022-11-20T01:39:12;101435.50;;;-0.20;100.00
69318;BME280;56457;52.190;4.440;2022-11-20T01:40:13;101441.50;;;-0.21;100.00
69318;BME280;56457;52.190;4.440;2022-11-20T01:41:13;101448.34;;;-0.21;100.00
69318;BME280;56457;52.190;4.440;2022-11-20T01:42:33;101437.28;;;-0.19;100.00
69318;BME280;56457;52.190;4.440;2022-11-20T01:43:52;101437.69;;;-0.10;100.00
69318;BME280;56457;52.190;4.440;2022-11-20T01:44:54;101431.88;;;-0.06;100.00
69318;BME280;56457;52.190;4.440;2022-11-20T01:46:59;101430.25;;;-0.04;100.00
69318;BME280;56457;52.190;4.440;2022-11-20T01:48:01;101427.66;;;-0.04;100.00
69318;BME280;56457;52.190;4.440;2022-11-20T01:49:05;101430.09;;;-0.07;100.00
69318;BME280;56457;52.190;4.440;2022-11-20T01:50:11;101431.66;;;-0.10;100.00
69318;BME280;56457;52.190;4.440;2022-11-20T01:51:19;101438.91;;;-0.21;100.00
69318;BME280;56457;52.190;4.440;2022-11-20T01:52:23;101438.63;;;-0.27;100.00
69318;BME280;56457;52.190;4.440;2022-11-20T01:53:25;101442.91;;;-0.28;100.00
69318;BME280;56457;52.190;4.440;2022-11-20T01:54:30;101437.81;;;-0.26;100.00
69318;BME280;56457;52.190;4.440;2022-11-20T01:55:35;101430.00;;;-0.28;100.00
69318;BME280;56457;52.190;4.440;2022-11-20T01:56:37;101437.81;;;-0.26;100.00
69318;BME280;56457;52.190;4.440;2022-11-20T01:57:38;101431.38;;;-0.16;100.00
69318;BME280;56457;52.190;4.440;2022-11-20T01:58:42;101432.22;;;-0.17;100.00
69318;BME280;56457;52.190;4.440;2022-11-20T01:59:45;101433.91;;;-0.18;100.00
69318;BME280;56457;52.190;4.440;2022-11-20T02:00:48;101439.50;;;-0.27;100.00
69318;BME280;56457;52.190;4.440;2022-11-20T02:01:49;101440.88;;;-0.35;100.00
69318;BME280;56457;52.190;4.440;2022-11-20T02:02:56;101443.09;;;-0.42;100.00
69318;BME280;56457;52.190;4.440;2022-11-20T02:03:57;101437.84;;;-0.44;100.00
69318;BME280;56457;52.190;4.440;2022-11-20T02:05:00;101441.47;;;-0.40;100.00
69318;BME280;56457;52.190;4.440;2022-11-20T02:06:04;101434.84;;;-0.35;100.00
69318;BME280;56457;52.190;4.440;2022-11-20T02:07:07;101429.06;;;-0.30;100.00
69318;BME280;56457;52.190;4.440;2022-11-20T02:08:08;101436.72;;;-0.31;100.00
69318;BME280;56457;52.190;4.440;2022-11-20T02:09:08;101437.47;;;-0.34;100.00
69318;BME280;56457;52.190;4.440;2022-11-20T02:10:09;101436.78;;;-0.49;100.00
69318;BME280;56457;52.190;4.440;2022-11-20T02:11:09;101438.53;;;-0.48;100.00
69318;BME280;56457;52.190;4.440;2022-11-20T02:12:09;101437.38;;;-0.55;100.00
69318;BME280;56457;52.190;4.440;2022-11-20T02:13:30;101441.78;;;-0.52;100.00
69318;BME280;56457;52.190;4.440;2022-11-20T02:14:43;101435.28;;;-0.44;100.00
69318;BME280;56457;52.190;4.440;2022-11-20T02:15:43;101432.69;;;-0.44;100.00
69318;BME280;56457;52.190;4.440;2022-11-20T02:16:45;101438.66;;;-0.45;100.00
69318;BME280;56457;52.190;4.440;2022-11-20T02:17:45;101448.09;;;-0.45;100.00
69318;BME280;56457;52.190;4.440;2022-11-20T02:18:46;101445.69;;;-0.42;100.00
69318;BME280;56457;52.190;4.440;2022-11-20T02:19:46;101443.09;;;-0.42;100.00
69318;BME280;56457;52.190;4.440;2022-11-20T02:20:47;101439.78;;;-0.40;100.00
69318;BME280;56457;52.190;4.440;2022-11-20T02:22:51;101436.38;;;-0.39;100.00
69318;BME280;56457;52.190;4.440;2022-11-20T02:25:04;101438.25;;;-0.54;100.00
69318;BME280;56457;52.190;4.440;2022-11-20T02:26:06;101434.50;;;-0.61;100.00
69318;BME280;56457;52.190;4.440;2022-11-20T02:27:10;101436.41;;;-0.57;100.00
69318;BME280;56457;52.190;4.440;2022-11-20T02:28:10;101435.47;;;-0.59;100.00
69318;BME280;56457;52.190;4.440;2022-11-20T02:29:11;101434.50;;;-0.61;100.00
69318;BME280;56457;52.190;4.440;2022-11-20T02:30:11;101430.19;;;-0.62;100.00
69318;BME280;56457;52.190;4.440;2022-11-20T02:31:12;101433.53;;;-0.63;100.00
69318;BME280;56457;52.190;4.440;2022-11-20T02:32:19;101439.72;;;-0.59;100.00
69318;BME280;56457;52.190;4.440;2022-11-20T02:33:19;101436.41;;;-0.57;100.00
69318;BME280;56457;52.190;4.440;2022-11-20T02:34:20;101429.50;;;-0.58;100.00
69318;BME280;56457;52.190;4.440;2022-11-20T02:36:20;101429.19;;;-0.64;100.00
69318;BME280;56457;52.190;4.440;2022-11-20T02:37:21;101432.75;;;-0.62;100.00
69318;BME280;56457;52.190;4.440;2022-11-20T02:38:22;101432.75;;;-0.62;100.00
69318;BME280;56457;52.190;4.440;2022-11-20T02:39:23;101433.53;;;-0.63;100.00
69318;BME280;56457;52.190;4.440;2022-11-20T02:40:25;101441.56;;;-0.57;100.00
69318;BME280;56457;52.190;4.440;2022-11-20T02:41:35;101430.47;;;-0.56;100.00
69318;BME280;56457;52.190;4.440;2022-11-20T02:42:36;101427.88;;;-0.56;100.00
69318;BME280;56457;52.190;4.440;2022-11-20T02:43:36;101422.44;;;-0.62;100.00
69318;BME280;56457;52.190;4.440;2022-11-20T02:44:37;101423.91;;;-0.67;100.00
69318;BME280;56457;52.190;4.440;2022-11-20T02:45:37;101419.44;;;-0.71;100.00
69318;BME280;56457;52.190;4.440;2022-11-20T02:46:38;101417.59;;;-0.73;100.00
69318;BME280;56457;52.190;4.440;2022-11-20T02:47:38;101414.94;;;-0.75;100.00
69318;BME280;56457;52.190;4.440;2022-11-20T02:48:38;101415.09;;;-0.72;100.00
69318;BME280;56457;52.190;4.440;2022-11-20T02:49:39;101410.75;;;-0.73;100.00
69318;BME280;56457;52.190;4.440;2022-11-20T02:50:39;101407.19;;;-0.75;100.00
69318;BME280;56457;52.190;4.440;2022-11-20T02:51:40;101403.25;;;-0.68;100.00
69318;BME280;56457;52.190;4.440;2022-11-20T02:52:40;101406.16;;;-0.61;100.00
69318;BME280;56457;52.190;4.440;2022-11-20T02:53:40;101402.91;;;-0.57;100.00
69318;BME280;56457;52.190;4.440;2022-11-20T02:54:41;101406.56;;;-0.51;100.00
69318;BME280;56457;52.190;4.440;2022-11-20T02:55:41;101403.00;;;-0.55;100.00
69318;BME280;56457;52.190;4.440;2022-11-20T02:56:41;101408.75;;;-0.61;100.00
69318;BME280;56457;52.190;4.440;2022-11-20T02:57:42;101402.50;;;-0.66;100.00
69318;BME280;56457;52.190;4.440;2022-11-20T02:58:42;101402.50;;;-0.66;100.00
69318;BME280;56457;52.190;4.440;2022-11-20T02:59:42;101404.41;;;-0.62;100.00
69318;BME280;56457;52.190;4.440;2022-11-20T03:00:43;101404.41;;;-0.62;100.00
69318;BME280;56457;52.190;4.440;2022-11-20T03:01:43;101405.19;;;-0.63;100.00
69318;BME280;56457;52.190;4.440;2022-11-20T03:02:43;101399.44;;;-0.57;100.00
69318;BME280;56457;52.190;4.440;2022-11-20T03:03:44;101400.03;;;-0.63;100.00
69318;BME280;56457;52.190;4.440;2022-11-20T03:04:44;101405.28;;;-0.61;100.00
69318;BME280;56457;52.190;4.440;2022-11-20T03:05:44;101393.13;;;-0.64;100.00
69318;BME280;56457;52.190;4.440;2022-11-20T03:06:44;101401.72;;;-0.63;100.00
69318;BME280;56457;52.190;4.440;2022-11-20T03:07:45;101394.81;;;-0.64;100.00
69318;BME280;56457;52.190;4.440;2022-11-20T03:08:45;101390.53;;;-0.64;100.00
69318;BME280;56457;52.190;4.440;2022-11-20T03:09:45;101389.81;;;-0.61;100.00
69318;BME280;56457;52.190;4.440;2022-11-20T03:10:46;101393.69;;;-0.51;100.00
69318;BME280;56457;52.190;4.440;2022-11-20T03:11:46;101388.53;;;-0.51;100.00
69318;BME280;56457;52.190;4.440;2022-11-20T03:12:46;101390.16;;;-0.53;100.00
69318;BME280;56457;52.190;4.440;2022-11-20T03:13:47;101373.00;;;-0.53;100.00
69318;BME280;56457;52.190;4.440;2022-11-20T03:14:47;101372.25;;;-0.50;100.00
69318;BME280;56457;52.190;4.440;2022-11-20T03:15:47;101373.88;;;-0.52;100.00
69318;BME280;56457;52.190;4.440;2022-11-20T03:16:48;101367.22;;;-0.67;100.00
69318;BME280;56457;52.190;4.440;2022-11-20T03:17:48;101369.97;;;-0.82;100.00
69318;BME280;56457;52.190;4.440;2022-11-20T03:18:48;101365.28;;;-0.90;100.00
69318;BME280;56457;52.190;4.440;2022-11-20T03:19:49;101373.28;;;-0.84;100.00
69318;BME280;56457;52.190;4.440;2022-11-20T03:20:49;101360.63;;;-0.79;100.00
69318;BME280;56457;52.190;4.440;2022-11-20T03:21:50;101368.69;;;-0.72;100.00
69318;BME280;56457;52.190;4.440;2022-11-20T03:22:50;101363.97;;;-0.63;100.00
69318;BME280;56457;52.190;4.440;2022-11-20T03:23:50;101360.72;;;-0.59;100.00
69318;BME280;56457;52.190;4.440;2022-11-20T03:24:51;101358.00;;;-0.62;100.00
69318;BME280;56457;52.190;4.440;2022-11-20T03:25:52;101356.38;;;-0.60;100.00
69318;BME280;56457;52.190;4.440;2022-11-20T03:26:52;101354.28;;;-0.68;100.00
69318;BME280;56457;52.190;4.440;2022-11-20T03:27:53;101363.22;;;-0.79;100.00
69318;BME280;56457;52.190;4.440;2022-11-20T03:28:57;101366.72;;;-0.77;100.00
69318;BME280;56457;52.190;4.440;2022-11-20T03:29:58;101365.97;;;-0.75;100.00
69318;BME280;56457;52.190;4.440;2022-11-20T03:30:58;101362.72;;;-0.71;100.00
69318;BME280;56457;52.190;4.440;2022-11-20T03:32:04;101370.47;;;-0.71;100.00
69318;BME280;56457;52.190;4.440;2022-11-20T03:33:04;101369.53;;;-0.73;100.00
69318;BME280;56457;52.190;4.440;2022-11-20T03:34:05;101365.19;;;-0.74;100.00
69318;BME280;56457;52.190;4.440;2022-11-20T03:35:06;101368.78;;;-0.70;100.00
69318;BME280;56457;52.190;4.440;2022-11-20T03:36:07;101361.63;;;-0.76;100.00
69318;BME280;56457;52.190;4.440;2022-11-20T03:37:08;101364.75;;;-0.83;100.00
69318;BME280;56457;52.190;4.440;2022-11-20T03:38:08;101357.47;;;-0.92;100.00
69318;BME280;56457;52.190;4.440;2022-11-20T03:39:08;101352.34;;;-0.92;100.00
69318;BME280;56457;52.190;4.440;2022-11-20T03:40:09;101359.09;;;-0.94;100.00
69318;BME280;56457;52.190;4.440;2022-11-20T03:41:13;101349.53;;;-0.96;100.00
69318;BME280;56457;52.190;4.440;2022-11-20T03:42:14;101358.31;;;-0.93;100.00
69318;BME280;56457;52.190;4.440;2022-11-20T03:43:32;101362.69;;;-0.90;100.00
69318;BME280;56457;52.190;4.440;2022-11-20T03:44:33;101360.25;;;-0.87;100.00
69318;BME280;56457;52.190;4.440;2022-11-20T03:45:33;101353.28;;;-0.90;100.00
69318;BME280;56457;52.190;4.440;2022-11-20T03:46:34;101349.66;;;-0.93;100.00
69318;BME280;56457;52.190;4.440;2022-11-20T03:47:34;101351.56;;;-0.89;100.00
69318;BME280;56457;52.190;4.440;2022-11-20T03:48:34;101351.19;;;-0.79;100.00
69318;BME280;56457;52.190;4.440;2022-11-20T03:49:34;101351.31;;;-0.76;100.00
69318;BME280;56457;52.190;4.440;2022-11-20T03:50:35;101352.16;;;-0.77;100.00
69318;BME280;56457;52.190;4.440;2022-11-20T03:51:35;101350.31;;;-0.79;100.00
69318;BME280;56457;52.190;4.440;2022-11-20T03:52:36;101355.25;;;-0.84;100.00
69318;BME280;56457;52.190;4.440;2022-11-20T03:53:36;101354.50;;;-0.82;100.00
69318;BME280;56457;52.190;4.440;2022-11-20T03:54:36;101355.31;;;-0.83;100.00
69318;BME280;56457;52.190;4.440;2022-11-20T03:55:37;101351.56;;;-0.89;100.00
69318;BME280;56457;52.190;4.440;2022-11-20T03:56:37;101353.28;;;-0.90;100.00
69318;BME280;56457;52.190;4.440;2022-11-20T03:57:38;101345.59;;;-0.88;100.00
69318;BME280;56457;52.190;4.440;2022-11-20T03:58:39;101348.06;;;-0.91;100.00
69318;BME280;56457;52.190;4.440;2022-11-20T03:59:40;101352.34;;;-0.92;100.00
69318;BME280;56457;52.190;4.440;2022-11-20T04:00:40;101354.81;;;-0.93;100.00
69318;BME280;56457;52.190;4.440;2022-11-20T04:01:40;101356.66;;;-0.91;100.00
69318;BME280;56457;52.190;4.440;2022-11-20T04:02:41;101351.50;;;-0.91;100.00
69318;BME280;56457;52.190;4.440;2022-11-20T04:03:41;101342.03;;;-0.92;100.00
69318;BME280;56457;52.190;4.440;2022-11-20T04:04:42;101341.00;;;-0.95;100.00
69318;BME280;56457;52.190;4.440;2022-11-20T04:05:42;101335.72;;;-0.98;100.00
69318;BME280;56457;52.190;4.440;2022-11-20T04:06:43;101325.72;;;-1.10;100.00
69318;BME280;56457;52.190;4.440;2022-11-20T04:07:43;101325.25;;;-1.19;100.00
69318;BME280;56457;52.190;4.440;2022-11-20T04:08:44;101321.81;;;-1.20;100.00
69318;BME280;56457;52.190;4.440;2022-11-20T04:09:44;101323.38;;;-1.23;100.00
69318;BME280;56457;52.190;4.440;2022-11-20T04:10:44;101319.47;;;-1.15;100.00
69318;BME280;56457;52.190;4.440;2022-11-20T04:11:45;101323.56;;;-1.19;100.00
69318;BME280;56457;52.190;4.440;2022-11-20T04:12:45;101321.28;;;-1.13;100.00
69318;BME280;56457;52.190;4.440;2022-11-20T04:13:46;101315.13;;;-1.16;100.00
69318;BME280;56457;52.190;4.440;2022-11-20T04:14:47;101308.81;;;-1.23;100.00
69318;BME280;56457;52.190;4.440;2022-11-20T04:15:47;101310.50;;;-1.23;100.00
69318;BME280;56457;52.190;4.440;2022-11-20T04:16:47;101313.09;;;-1.23;100.00
69318;BME280;56457;52.190;4.440;2022-11-20T04:17:48;101307.19;;;-1.21;100.00
69318;BME280;56457;52.190;4.440;2022-11-20T04:18:55;101299.75;;;-1.15;100.00
69318;BME280;56457;52.190;4.440;2022-11-20T04:19:56;101296.94;;;-1.19;100.00
69318;BME280;56457;52.190;4.440;2022-11-20T04:20:56;101302.97;;;-1.19;100.00
69318;BME280;56457;52.190;4.440;2022-11-20T04:21:57;101303.13;;;-1.16;100.00
69318;BME280;56457;52.190;4.440;2022-11-20T04:22:57;101294.53;;;-1.16;100.00
69318;BME280;56457;52.190;4.440;2022-11-20T04:23:58;101297.69;;;-1.22;100.00
69318;BME280;56457;52.190;4.440;2022-11-20T04:24:58;101302.31;;;-1.15;100.00
69318;BME280;56457;52.190;4.440;2022-11-20T04:26:02;101300.34;;;-1.20;100.00
69318;BME280;56457;52.190;4.440;2022-11-20T04:27:03;101298.88;;;-1.15;100.00
69318;BME280;56457;52.190;4.440;2022-11-20T04:28:03;101297.75;;;-1.20;100.00
69318;BME280;56457;52.190;4.440;2022-11-20T04:29:04;101293.50;;;-1.20;100.00
69318;BME280;56457;52.190;4.440;2022-11-20T04:30:04;101294.53;;;-1.16;100.00
69318;BME280;56457;52.190;4.440;2022-11-20T04:31:06;101297.47;;;-1.26;100.00
69318;BME280;56457;52.190;4.440;2022-11-20T04:32:07;101298.88;;;-1.33;100.00
69318;BME280;56457;52.190;4.440;2022-11-20T04:33:07;101298.81;;;-1.34;100.00
69318;BME280;56457;52.190;4.440;2022-11-20T04:34:10;101303.38;;;-1.29;100.00
69318;BME280;56457;52.190;4.440;2022-11-20T04:35:11;101305.06;;;-1.29;100.00
69318;BME280;56457;52.190;4.440;2022-11-20T04:36:13;101308.13;;;-1.19;100.00
69318;BME280;56457;52.190;4.440;2022-11-20T04:37:13;101305.19;;;-1.09;100.00
69318;BME280;56457;52.190;4.440;2022-11-20T04:38:13;101306.00;;;-1.10;100.00
69318;BME280;56457;52.190;4.440;2022-11-20T04:39:14;101312.78;;;-1.12;100.00
69318;BME280;56457;52.190;4.440;2022-11-20T04:40:17;101297.22;;;-1.13;100.00
69318;BME280;56457;52.190;4.440;2022-11-20T04:41:18;101298.41;;;-1.24;100.00
69318;BME280;56457;52.190;4.440;2022-11-20T04:42:19;101297.47;;;-1.26;100.00
69318;BME280;56457;52.190;4.440;2022-11-20T04:43:29;101297.09;;;-1.16;100.00
69318;BME280;56457;52.190;4.440;2022-11-20T04:44:29;101296.63;;;-1.08;100.00
69318;BME280;56457;52.190;4.440;2022-11-20T04:45:30;101293.41;;;-1.03;100.00
69318;BME280;56457;52.190;4.440;2022-11-20T04:46:31;101292.88;;;-0.96;100.00
69318;BME280;56457;52.190;4.440;2022-11-20T04:47:32;101295.72;;;-0.90;100.00
69318;BME280;56457;52.190;4.440;2022-11-20T04:48:32;101294.97;;;-0.88;100.00
69318;BME280;56457;52.190;4.440;2022-11-20T04:49:34;101296.88;;;-0.84;100.00
69318;BME280;56457;52.190;4.440;2022-11-20T04:50:39;101305.09;;;-0.92;100.00
69318;BME280;56457;52.190;4.440;2022-11-20T04:51:39;101301.69;;;-0.91;100.00
69318;BME280;56457;52.190;4.440;2022-11-20T04:52:39;101301.22;;;-0.83;100.00
69318;BME280;56457;52.190;4.440;2022-11-20T04:53:41;101305.66;;;-0.80;100.00
69318;BME280;56457;52.190;4.440;2022-11-20T04:54:41;101308.50;;;-0.74;100.00
69318;BME280;56457;52.190;4.440;2022-11-20T04:55:42;101301.44;;;-0.78;100.00
69318;BME280;56457;52.190;4.440;2022-11-20T04:56:42;101304.78;;;-0.80;100.00
69318;BME280;56457;52.190;4.440;2022-11-20T04:57:42;101296.00;;;-0.84;100.00
69318;BME280;56457;52.190;4.440;2022-11-20T04:58:43;101302.03;;;-0.84;100.00
69318;BME280;56457;52.190;4.440;2022-11-20T04:59:43;101300.06;;;-0.89;100.00
69318;BME280;56457;52.190;4.440;2022-11-20T05:00:43;101293.22;;;-0.89;100.00
69318;BME280;56457;52.190;4.440;2022-11-20T05:01:44;101302.63;;;-0.89;100.00
69318;BME280;56457;52.190;4.440;2022-11-20T05:02:44;101306.16;;;-0.87;100.00
69318;BME280;56457;52.190;4.440;2022-11-20T05:03:45;101303.66;;;-0.86;100.00
69318;BME280;56457;52.190;4.440;2022-11-20T05:04:45;101301.97;;;-0.85;100.00
69318;BME280;56457;52.190;4.440;2022-11-20T05:05:46;101303.56;;;-0.87;100.00
69318;BME280;56457;52.190;4.440;2022-11-20T05:06:46;101300.00;;;-0.91;100.00
69318;BME280;56457;52.190;4.440;2022-11-20T05:07:46;101306.09;;;-0.89;100.00
69318;BME280;56457;52.190;4.440;2022-11-20T05:08:47;101307.78;;;-0.89;100.00
69318;BME280;56457;52.190;4.440;2022-11-20T05:09:47;101304.41;;;-0.88;100.00
69318;BME280;56457;52.190;4.440;2022-11-20T05:10:48;101309.47;;;-0.90;100.00
69318;BME280;56457;52.190;4.440;2022-11-20T05:11:48;101312.72;;;-0.94;100.00
69318;BME280;56457;52.190;4.440;2022-11-20T05:12:48;101317.81;;;-0.95;100.00
69318;BME280;56457;52.190;4.440;2022-11-20T05:13:49;101307.72;;;-0.91;100.00
69318;BME280;56457;52.190;4.440;2022-11-20T05:14:50;101319.50;;;-0.96;100.00
69318;BME280;56457;52.190;4.440;2022-11-20T05:15:50;101311.66;;;-0.99;100.00
69318;BME280;56457;52.190;4.440;2022-11-20T05:16:51;101323.66;;;-0.99;100.00
69318;BME280;56457;52.190;4.440;2022-11-20T05:17:51;101324.59;;;-0.97;100.00
69318;BME280;56457;52.190;4.440;2022-11-20T05:18:53;101318.69;;;-0.95;100.00
69318;BME280;56457;52.190;4.440;2022-11-20T05:19:54;101327.22;;;-0.96;100.00
69318;BME280;56457;52.190;4.440;2022-11-20T05:20:55;101324.66;;;-0.96;100.00
69318;BME280;56457;52.190;4.440;2022-11-20T05:21:55;101335.03;;;-0.94;100.00